Time;durP1;ratioP1;P1;durP2;ratioP2;P2;SDS_P1;SDS_P2;PMS_P1;PMS_P2;Temp;Humidity;BMP_temperature;BMP_pressure;BME280_temperature;BME280_humidity;BME280_pressure;Samples;Min_cycle;Max_cycle;Signal;HPM_P1;HPM_P2
2022/08/30 00:05:34;;;;;;;2.15;0.50;;;;;;;;;;20905249;28;20212;-71
2022/08/30 00:15:36;;;;;;;3.63;0.70;;;;;;;;;;20920219;22;20270;-74
2022/08/30 00:25:38;;;;;;;1.42;0.60;;;;;;;;;;20855893;28;20290;-74
2022/08/30 00:35:40;;;;;;;1.40;0.65;;;23.10;89.80;;;;;;20855122;28;20208;-74
2022/08/30 00:45:42;;;;;;;3.22;0.60;;;;;;;;;;20864951;28;20218;-73
2022/08/30 00:55:44;;;;;;;1.45;0.60;;;22.80;91.20;;;;;;20871148;28;20221;-73
2022/08/30 01:05:48;;;;;;;2.13;0.50;;;22.90;91.60;;;;;;20886574;28;20212;-73
2022/08/30 01:15:51;;;;;;;3.00;0.90;;;;;;;;;;20869766;28;20633;-73
2022/08/30 01:25:53;;;;;;;3.85;0.63;;;22.80;84.80;;;;;;20869102;28;20213;-73
2022/08/30 01:35:57;;;;;;;1.83;0.65;;;;;;;;;;20884682;28;20264;-74
2022/08/30 01:46:00;;;;;;;5.32;0.73;;;;;;;;;;20883620;28;20211;-74
2022/08/30 01:56:04;;;;;;;1.20;0.65;;;;;;;;;;20866720;28;20219;-73
2022/08/30 02:06:12;;;;;;;3.42;0.70;;;22.50;92.80;;;;;;20882269;28;20211;-73
2022/08/30 02:16:17;;;;;;;2.17;0.80;;;22.50;92.70;;;;;;20881159;28;20613;-73
2022/08/30 02:26:19;;;;;;;1.83;0.73;;;;;;;;;;20864158;28;20220;-73
2022/08/30 02:36:22;;;;;;;1.17;0.60;;;22.20;88.50;;;;;;20879834;28;20586;-74
2022/08/30 02:46:24;;;;;;;3.90;1.00;;;21.70;92.60;;;;;;20863120;28;20212;-73
2022/08/30 02:56:27;;;;;;;2.10;0.60;;;;;;;;;;20862146;28;20214;-74
2022/08/30 03:06:30;;;;;;;1.52;0.57;;;;;;;;;;20877145;28;20558;-74
2022/08/30 03:16:32;;;;;;;1.20;0.68;;;;;;;;;;20860208;28;20241;-74
2022/08/30 03:26:34;;;;;;;1.83;0.85;;;;;;;;;;20859754;28;20211;-74
2022/08/30 03:36:37;;;;;;;1.70;0.80;;;22.00;91.20;;;;;;20858863;28;20497;-73
2022/08/30 03:46:39;;;;;;;1.73;0.75;;;21.90;94.80;;;;;;20890401;28;20211;-74
2022/08/30 03:56:41;;;;;;;2.50;0.75;;;;;;;;;;20873684;28;20210;-74
2022/08/30 04:06:43;;;;;;;2.88;1.05;;;;;;;;;;20857222;28;20678;-74
2022/08/30 04:16:45;;;;;;;2.53;0.80;;;;;;;;;;20871721;28;20281;-74
2022/08/30 04:26:47;;;;;;;2.17;0.87;;;;;;;;;;20855491;28;20214;-74
2022/08/30 04:36:49;;;;;;;1.13;0.53;;;21.00;97.70;;;;;;20855010;28;20215;-74
2022/08/30 04:46:51;;;;;;;2.22;0.90;;;;;;;;;;20871098;28;20362;-74
2022/08/30 04:56:53;;;;;;;1.17;0.70;;;;;;;;;;20887199;28;20269;-74
2022/08/30 05:06:54;;;;;;;1.05;0.65;;;;;;;;;;20853880;28;20208;-74
2022/08/30 05:16:56;;;;;;;1.83;0.80;;;;;;;;;;20902464;28;20217;-74
2022/08/30 05:26:58;;;;;;;2.33;0.80;;;;;;;;;;20854794;28;20253;-74
2022/08/30 05:37:01;;;;;;;1.63;0.63;;;;;;;;;;20884991;28;20290;-74
2022/08/30 05:47:03;;;;;;;3.92;0.80;;;;;;;;;;20867683;28;20216;-74
2022/08/30 05:57:05;;;;;;;2.40;0.60;;;;;;;;;;20866719;28;20237;-74
2022/08/30 06:07:07;;;;;;;1.40;0.60;;;;;;;;;;20882413;28;20233;-74
2022/08/30 06:17:09;;;;;;;2.17;0.90;;;;;;;;;;20877301;22;20519;-70
2022/08/30 06:27:11;;;;;;;1.45;0.60;;;;;;;;;;20913675;28;20744;-70
2022/08/30 06:37:12;;;;;;;1.33;0.73;;;;;;;;;;20913037;28;20227;-71
2022/08/30 06:47:14;;;;;;;1.65;0.80;;;;;;;;;;20893443;28;20212;-71
2022/08/30 06:57:16;;;;;;;1.50;0.80;;;;;;;;;;20911899;28;20208;-71
2022/08/30 07:07:18;;;;;;;1.80;0.70;;;;;;;;;;20909009;28;20280;-71
2022/08/30 07:27:41;;;;;;;1.65;0.68;;;;;;;;;;20910215;28;20563;-71
2022/08/30 07:37:43;;;;;;;4.00;0.90;;;;;;;;;;20912595;28;20276;-71
2022/08/30 07:47:48;;;;;;;1.67;0.80;;;;;;;;;;20912152;28;20205;-70
2022/08/30 07:57:52;;;;;;;1.95;0.85;;;;;;;;;;20873097;28;20213;-71
2022/08/30 08:07:54;;;;;;;1.65;0.77;;;;;;;;;;20906943;28;20256;-72
2022/08/30 08:17:56;;;;;;;4.00;1.00;;;;;;;;;;20903807;28;20262;-71
2022/08/30 08:27:58;;;;;;;2.10;0.73;;;;;;;;;;20905553;28;20204;-70
2022/08/30 08:37:59;;;;;;;2.50;0.82;;;23.60;93.80;;;;;;20904949;28;20214;-72
2022/08/30 08:48:08;;;;;;;3.80;0.73;;;23.70;95.20;;;;;;20904210;28;20228;-71
2022/08/30 08:58:16;;;;;;;1.58;0.80;;;;;;;;;;20906102;28;20217;-71
2022/08/30 09:08:18;;;;;;;1.73;0.80;;;23.70;94.90;;;;;;20916998;28;20199;-71
2022/08/30 09:18:46;;;;;;;1.58;0.80;;;24.10;93.80;;;;;;20919134;28;20278;-72
2022/08/30 09:28:49;;;;;;;1.73;0.65;;;24.50;84.80;;;;;;20919040;28;20207;-71
2022/08/30 09:39:03;;;;;;;4.05;0.90;;;24.80;92.10;;;;;;20899943;28;20216;-70
2022/08/30 09:49:26;;;;;;;3.90;0.95;;;24.30;92.90;;;;;;20917026;28;20213;-71
2022/08/30 10:00:06;;;;;;;2.20;0.73;;;24.80;80.60;;;;;;20930509;28;20207;-72
2022/08/30 10:10:22;;;;;;;1.90;0.98;;;25.20;90.80;;;;;;20915720;28;20287;-72
2022/08/30 10:20:24;;;;;;;1.45;0.75;;;;;;;;;;20910693;28;20260;-72
2022/08/30 10:30:28;;;;;;;2.28;0.70;;;25.80;88.70;;;;;;20912419;28;20593;-72
2022/08/30 10:51:01;;;;;;;2.13;0.85;;;26.30;88.80;;;;;;20911836;28;20459;-71
2022/08/30 11:01:03;;;;;;;1.45;0.80;;;;;;;;;;20911243;28;20216;-72
2022/08/30 11:11:17;;;;;;;5.97;1.15;;;26.90;86.90;;;;;;20910642;28;20217;-72
2022/08/30 11:21:51;;;;;;;1.83;0.93;;;27.10;87.50;;;;;;20908407;28;20427;-72
2022/08/30 11:31:57;;;;;;;2.08;0.90;;;26.30;87.70;;;;;;20904806;28;20266;-71
2022/08/30 11:42:33;;;;;;;3.05;1.00;;;26.20;76.20;;;;;;20907912;28;20628;-71
2022/08/30 11:52:44;;;;;;;3.08;1.02;;;;;;;;;;20907257;28;20205;-72
2022/08/30 12:02:56;;;;;;;1.38;0.88;;;27.30;87.50;;;;;;20906607;28;20218;-70
2022/08/30 12:12:58;;;;;;;1.30;0.73;;;;;;;;;;20923852;22;20659;-75
2022/08/30 12:23:13;;;;;;;1.75;0.90;;;;;;;;;;20871870;28;20239;-75
2022/08/30 12:33:31;;;;;;;2.45;0.88;;;29.10;76.90;;;;;;20871771;28;20255;-75
2022/08/30 12:43:36;;;;;;;3.05;1.08;;;29.40;78.90;;;;;;20870327;28;20271;-75
2022/08/30 12:53:44;;;;;;;2.05;0.95;;;29.20;80.10;;;;;;20870651;28;20209;-76
2022/08/30 13:04:18;;;;;;;2.30;0.88;;;29.00;78.60;;;;;;20869968;28;20217;-75
2022/08/30 13:14:31;;;;;;;1.65;0.85;;;;;;;;;;20854047;28;20221;-74
2022/08/30 13:24:33;;;;;;;1.77;0.88;;;;;;;;;;20852889;28;20291;-74
2022/08/30 13:34:35;;;;;;;2.00;1.00;;;;;;;;;;20868682;28;20782;-74
2022/08/30 13:44:37;;;;;;;1.88;0.98;;;;;;;;;;20852143;28;20580;-74
2022/08/30 13:54:39;;;;;;;1.88;0.80;;;25.90;70.10;;;;;;20863445;28;20225;-74
2022/08/30 14:04:41;;;;;;;1.88;0.80;;;;;;;;;;20866481;28;20258;-73
2022/08/30 14:14:42;;;;;;;1.38;0.70;;;;;;;;;;20865172;28;20225;-74
2022/08/30 14:24:44;;;;;;;1.23;1.00;;;;;;;;;;20864711;28;20265;-74
2022/08/30 14:34:46;;;;;;;2.75;1.00;;;;;;;;;;20863628;28;20213;-74
2022/08/30 14:44:48;;;;;;;1.88;1.15;;;;;;;;;;20862648;28;20210;-74
2022/08/30 14:54:50;;;;;;;1.50;1.00;;;;;;;;;;20878421;28;20636;-74
2022/08/30 15:04:52;;;;;;;1.42;0.73;;;;;;;;;;20860253;28;20645;-75
2022/08/30 15:14:54;;;;;;;1.50;0.88;;;;;;;;;;20876098;28;20287;-75
2022/08/30 15:24:55;;;;;;;1.52;0.90;;;;;;;;;;20875674;28;20267;-76
2022/08/30 15:34:59;;;;;;;1.77;1.00;;;;;;;;;;20874861;28;20240;-76
2022/08/30 15:45:00;;;;;;;1.42;0.95;;;;;;;;;;20874737;28;20684;-75
2022/08/30 15:55:02;;;;;;;3.40;0.80;;;;;;;;;;20857546;28;20273;-75
2022/08/30 16:05:04;;;;;;;2.35;1.38;;;;;;;;;;20873405;28;20627;-76
2022/08/30 16:15:06;;;;;;;1.15;0.65;;;29.10;71.40;;;;;;20872633;28;20275;-75
2022/08/30 16:25:09;;;;;;;2.60;1.10;;;;;;;;;;20872068;28;20230;-75
2022/08/30 16:35:11;;;;;;;1.88;1.00;;;;;;;;;;20871184;28;20237;-75
2022/08/30 16:45:13;;;;;;;1.77;0.80;;;;;;;;;;20871238;28;20213;-75
2022/08/30 16:55:15;;;;;;;1.63;0.90;;;;;;;;;;20854607;28;20648;-75
2022/08/30 17:05:17;;;;;;;4.97;2.97;;;;;;;;;;20870262;28;20212;-75
2022/08/30 17:15:19;;;;;;;10.35;4.03;;;;;;;;;;20869067;28;20221;-74
2022/08/30 17:25:21;;;;;;;6.18;3.83;;;;;;;;;;20874422;28;20572;-74
2022/08/30 17:35:23;;;;;;;5.63;2.38;;;28.00;82.50;;;;;;20883817;28;20245;-74
2022/08/30 17:45:25;;;;;;;6.30;2.35;;;;;;;;;;20883469;28;20688;-74
2022/08/30 17:55:28;;;;;;;9.38;4.78;;;;;;;;;;20866670;28;20641;-73
2022/08/30 18:05:29;;;;;;;1.83;1.20;;;;;;;;;;20866061;28;20576;-75
2022/08/30 18:15:31;;;;;;;18.00;11.00;;;;;;;;;;20894337;22;20771;-72
2022/08/30 18:25:33;;;;;;;5.80;4.18;;;;;;;;;;20915043;28;20204;-72
2022/08/30 18:35:36;;;;;;;4.13;1.60;;;;;;;;;;20912049;28;20314;-73
2022/08/30 18:45:38;;;;;;;1.90;1.00;;;;;;;;;;20912899;28;20265;-73
2022/08/30 18:55:40;;;;;;;2.30;1.00;;;27.10;83.70;;;;;;20912369;28;20211;-72
2022/08/30 19:05:42;;;;;;;1.80;1.20;;;;;;;;;;20911326;28;20270;-72
2022/08/30 19:15:44;;;;;;;1.77;1.00;;;;;;;;;;20909142;28;20270;-73
2022/08/30 19:25:46;;;;;;;2.17;1.08;;;;;;;;;;20894595;28;20676;-72
2022/08/30 19:35:47;;;;;;;1.50;0.90;;;;;;;;;;20911072;28;20213;-72
2022/08/30 19:45:56;;;;;;;3.25;0.90;;;;;;;;;;20908480;28;20212;-73
2022/08/30 19:55:59;;;;;;;1.40;0.88;;;;;;;;;;20906367;28;20261;-73
2022/08/30 20:06:00;;;;;;;1.48;0.70;;;;;;;;;;20889227;28;20254;-73
2022/08/30 20:16:02;;;;;;;1.75;0.75;;;;;;;;;;20905122;28;20765;-73
2022/08/30 20:26:04;;;;;;;2.15;0.80;;;;;;;;;;20888211;28;20707;-73
2022/08/30 20:36:08;;;;;;;1.63;0.80;;;26.30;81.20;;;;;;20903710;28;20216;-73
2022/08/30 20:46:14;;;;;;;1.75;0.90;;;;;;;;;;20903836;28;20647;-73
2022/08/30 20:56:17;;;;;;;4.45;1.02;;;;;;;;;;20905470;28;20266;-72
2022/08/30 21:06:20;;;;;;;1.60;0.70;;;;;;;;;;20917883;28;20223;-72
2022/08/30 21:16:22;;;;;;;1.40;0.75;;;;;;;;;;20883988;28;20220;-72
2022/08/30 21:26:25;;;;;;;1.30;0.80;;;;;;;;;;20917811;28;20696;-72
2022/08/30 21:36:44;;;;;;;3.20;0.82;;;24.60;87.70;;;;;;20917661;28;20214;-72
2022/08/30 21:46:47;;;;;;;3.28;1.23;;;;;;;;;;20916957;28;20530;-72
2022/08/30 21:56:50;;;;;;;2.67;0.90;;;;;;;;;;20916238;28;20224;-72
2022/08/30 22:06:52;;;;;;;2.53;0.95;;;;;;;;;;20915486;28;20204;-72
2022/08/30 22:16:54;;;;;;;1.20;0.52;;;;;;;;;;20913689;28;20553;-72
2022/08/30 22:26:57;;;;;;;1.25;0.73;;;;;;;;;;20912203;28;20209;-72
2022/08/30 22:36:59;;;;;;;2.35;0.80;;;;;;;;;;20912093;28;20263;-72
2022/08/30 22:47:01;;;;;;;2.30;0.77;;;;;;;;;;20912343;28;20274;-73
2022/08/30 22:57:03;;;;;;;1.85;0.60;;;;;;;;;;20911374;28;20240;-72
2022/08/30 23:07:05;;;;;;;1.63;0.95;;;;;;;;;;20910981;28;20765;-73
2022/08/30 23:17:06;;;;;;;3.97;0.85;;;;;;;;;;20910406;28;20217;-72
